createdAt,value
2022-08-25T00:00:07.760Z,16.96
2022-08-25T00:03:11.088Z,17.03
2022-08-25T00:06:15.129Z,17.09
2022-08-25T00:09:21.821Z,17.00
2022-08-25T00:12:24.596Z,16.99
2022-08-25T00:15:29.347Z,16.90
2022-08-25T00:18:32.191Z,16.90
2022-08-25T00:21:35.242Z,16.89
2022-08-25T00:24:37.976Z,16.92
2022-08-25T00:27:40.779Z,16.92
2022-08-25T00:30:45.544Z,16.98
2022-08-25T00:33:49.133Z,16.92
2022-08-25T00:36:52.558Z,16.95
2022-08-25T00:39:57.211Z,16.99
2022-08-25T00:43:00.550Z,17.01
2022-08-25T00:46:04.997Z,16.94
2022-08-25T00:49:16.383Z,16.84
2022-08-25T00:52:30.771Z,16.69
2022-08-25T00:55:39.396Z,16.86
2022-08-25T00:58:43.700Z,16.91
2022-08-25T01:01:51.271Z,16.93
2022-08-25T01:04:54.134Z,17.01
2022-08-25T01:07:58.812Z,16.96
2022-08-25T01:11:05.924Z,16.96
2022-08-25T01:14:10.593Z,16.99
2022-08-25T01:17:15.952Z,16.95
2022-08-25T01:20:20.258Z,16.87
2022-08-25T01:23:25.781Z,16.86
2022-08-25T01:26:31.631Z,16.94
2022-08-25T01:29:36.153Z,16.62
2022-08-25T01:32:38.905Z,16.74
2022-08-25T01:35:42.250Z,16.66
2022-08-25T01:38:46.308Z,16.73
2022-08-25T01:42:04.376Z,16.59
2022-08-25T01:45:08.365Z,16.47
2022-08-25T01:48:12.659Z,16.51
2022-08-25T01:51:17.122Z,16.49
2022-08-25T01:54:21.370Z,16.37
2022-08-25T01:57:24.091Z,16.39
2022-08-25T02:00:26.936Z,16.14
2022-08-25T02:03:30.298Z,16.05
2022-08-25T02:06:35.896Z,16.17
2022-08-25T02:09:40.412Z,16.26
2022-08-25T02:12:43.234Z,16.23
2022-08-25T02:15:49.495Z,16.20
2022-08-25T02:18:53.110Z,16.24
2022-08-25T02:21:55.862Z,16.29
2022-08-25T02:25:00.259Z,16.31
2022-08-25T02:28:03.396Z,16.26
2022-08-25T02:31:06.843Z,16.18
2022-08-25T02:34:11.445Z,16.04
2022-08-25T02:37:14.282Z,16.16
2022-08-25T02:40:18.663Z,16.28
2022-08-25T02:43:21.831Z,16.27
2022-08-25T02:46:25.837Z,16.24
2022-08-25T02:49:28.712Z,16.24
2022-08-25T02:52:31.491Z,16.26
2022-08-25T02:55:35.659Z,16.21
2022-08-25T02:58:39.307Z,16.09
2022-08-25T03:01:42.123Z,15.88
2022-08-25T03:04:45.345Z,15.93
2022-08-25T03:07:48.173Z,15.94
2022-08-25T03:10:53.172Z,15.81
2022-08-25T03:13:56.514Z,15.90
2022-08-25T03:16:59.399Z,15.72
2022-08-25T03:20:02.196Z,15.74
2022-08-25T03:23:06.120Z,15.77
2022-08-25T03:26:28.163Z,15.54
2022-08-25T03:29:34.324Z,15.52
2022-08-25T03:32:37.192Z,15.40
2022-08-25T03:35:40.686Z,15.49
2022-08-25T03:38:43.493Z,15.57
2022-08-25T03:41:48.156Z,15.61
2022-08-25T03:44:50.929Z,15.65
2022-08-25T03:47:54.638Z,15.71
2022-08-25T03:50:57.367Z,15.61
2022-08-25T03:54:01.213Z,15.57
2022-08-25T03:57:06.219Z,15.66
2022-08-25T04:00:12.038Z,15.57
2022-08-25T04:03:14.946Z,15.58
2022-08-25T04:06:18.959Z,15.57
2022-08-25T04:09:21.781Z,15.62
2022-08-25T04:12:26.314Z,15.52
2022-08-25T04:15:30.054Z,15.50
2022-08-25T04:18:34.346Z,15.49
2022-08-25T04:21:38.893Z,15.47
2022-08-25T04:24:41.769Z,15.42
2022-08-25T04:27:45.951Z,15.50
2022-08-25T04:30:52.035Z,15.38
2022-08-25T04:33:55.191Z,15.35
2022-08-25T04:36:58.308Z,15.35
2022-08-25T04:40:01.160Z,15.45
2022-08-25T04:43:05.408Z,15.48
2022-08-25T04:46:11.261Z,15.45
2022-08-25T04:49:14.092Z,15.53
2022-08-25T04:52:17.023Z,15.57
2022-08-25T04:55:20.190Z,15.63
2022-08-25T04:58:24.344Z,15.66
2022-08-25T05:01:27.736Z,15.69
2022-08-25T05:04:30.986Z,15.64
2022-08-25T05:07:33.878Z,15.69
2022-08-25T05:10:40.437Z,15.75
2022-08-25T05:13:51.508Z,15.76
2022-08-25T05:16:55.214Z,15.79
2022-08-25T05:19:58.117Z,15.85
2022-08-25T05:23:00.869Z,15.86
2022-08-25T05:26:06.942Z,15.92
2022-08-25T05:29:12.559Z,15.92
2022-08-25T05:32:15.372Z,15.99
2022-08-25T05:35:20.249Z,16.03
2022-08-25T05:38:23.613Z,16.14
2022-08-25T05:41:29.489Z,16.20
2022-08-25T05:44:34.287Z,16.27
2022-08-25T05:47:37.430Z,16.33
2022-08-25T05:50:40.559Z,16.40
2022-08-25T05:53:44.985Z,16.48
2022-08-25T05:56:47.987Z,16.53
2022-08-25T05:59:52.370Z,16.62
2022-08-25T06:02:54.185Z,16.74
2022-08-25T06:06:07.223Z,16.87
2022-08-25T06:09:11.195Z,16.96
2022-08-25T06:12:14.289Z,17.01
2022-08-25T06:15:21.076Z,17.15
2022-08-25T06:18:23.858Z,17.33
2022-08-25T06:21:26.661Z,17.46
2022-08-25T06:24:30.171Z,17.61
2022-08-25T06:27:32.917Z,17.71
2022-08-25T06:30:37.025Z,17.84
2022-08-25T06:33:39.897Z,18.01
2022-08-25T06:36:42.901Z,18.06
2022-08-25T06:39:51.175Z,18.21
2022-08-25T06:42:53.964Z,18.27
2022-08-25T06:45:59.044Z,18.42
2022-08-25T06:49:01.880Z,18.53
2022-08-25T06:52:05.131Z,18.58
2022-08-25T06:55:08.423Z,18.67
2022-08-25T06:58:11.448Z,18.77
2022-08-25T07:01:20.209Z,18.83
2022-08-25T07:04:23.142Z,19.03
2022-08-25T07:07:26.123Z,19.14
2022-08-25T07:10:48.184Z,19.30
2022-08-25T07:13:51.521Z,19.36
2022-08-25T07:16:55.627Z,19.45
2022-08-25T07:19:58.405Z,19.59
2022-08-25T07:23:01.134Z,19.76
2022-08-25T07:26:27.095Z,19.81
2022-08-25T07:29:34.023Z,19.93
2022-08-25T07:32:41.963Z,20.16
2022-08-25T07:35:46.099Z,20.24
2022-08-25T07:38:50.389Z,20.35
2022-08-25T07:41:54.379Z,20.50
2022-08-25T07:44:57.589Z,20.64
2022-08-25T07:48:03.997Z,20.87
2022-08-25T07:51:09.179Z,20.90
2022-08-25T07:54:12.328Z,21.00
2022-08-25T07:57:15.545Z,21.14
2022-08-25T08:00:19.016Z,21.30
2022-08-25T08:03:44.710Z,21.48
2022-08-25T08:06:47.385Z,21.60
2022-08-25T08:09:56.139Z,21.69
2022-08-25T08:13:10.057Z,21.80
2022-08-25T08:16:15.540Z,21.95
2022-08-25T08:19:23.143Z,22.09
2022-08-25T08:22:26.220Z,22.12
2022-08-25T08:25:29.388Z,22.38
2022-08-25T08:28:32.245Z,22.63
2022-08-25T08:31:35.049Z,22.58
2022-08-25T08:34:41.906Z,22.59
2022-08-25T08:37:47.413Z,22.72
2022-08-25T08:41:23.392Z,22.78
2022-08-25T08:44:31.884Z,22.86
2022-08-25T08:47:50.663Z,22.91
2022-08-25T08:51:09.751Z,22.97
2022-08-25T08:54:20.362Z,23.13
2022-08-25T08:57:29.329Z,23.31
2022-08-25T09:00:34.366Z,23.57
2022-08-25T09:03:40.484Z,23.50
2022-08-25T09:06:47.990Z,23.60
2022-08-25T09:09:52.232Z,23.67
2022-08-25T09:13:05.766Z,23.88
2022-08-25T09:16:38.720Z,23.73
2022-08-25T09:20:18.418Z,23.93
2022-08-25T09:23:39.978Z,24.21
2022-08-25T09:26:50.438Z,24.13
2022-08-25T09:30:05.212Z,24.16
2022-08-25T09:33:09.694Z,24.18
2022-08-25T09:36:12.842Z,24.31
2022-08-25T09:39:16.971Z,24.32
2022-08-25T09:42:23.938Z,24.52
2022-08-25T09:45:39.060Z,24.87
2022-08-25T09:48:48.482Z,24.85
2022-08-25T09:52:27.433Z,24.59
2022-08-25T09:55:34.464Z,24.58
2022-08-25T09:58:38.163Z,24.51
2022-08-25T10:01:49.831Z,24.76
2022-08-25T10:04:53.220Z,24.86
2022-08-25T10:07:58.132Z,25.24
2022-08-25T10:11:06.601Z,25.29
2022-08-25T10:14:20.312Z,25.22
2022-08-25T10:17:27.663Z,25.18
2022-08-25T10:20:33.082Z,25.20
2022-08-25T10:23:43.150Z,25.22
2022-08-25T10:26:59.924Z,25.37
2022-08-25T10:30:19.093Z,25.52
2022-08-25T10:33:33.177Z,25.64
2022-08-25T10:36:47.309Z,25.95
2022-08-25T10:40:03.613Z,25.86
2022-08-25T10:43:19.104Z,25.97
2022-08-25T10:46:34.536Z,26.11
2022-08-25T10:49:43.354Z,26.18
2022-08-25T10:53:02.149Z,26.27
2022-08-25T10:56:12.907Z,26.43
2022-08-25T10:59:41.751Z,26.37
2022-08-25T11:03:13.206Z,26.44
2022-08-25T11:06:21.577Z,26.72
2022-08-25T11:09:29.055Z,26.98
2022-08-25T11:12:36.893Z,26.93
2022-08-25T11:16:16.164Z,26.86
2022-08-25T11:19:21.795Z,26.70
2022-08-25T11:22:30.964Z,26.87
2022-08-25T11:25:38.767Z,27.10
2022-08-25T11:28:55.263Z,27.07
2022-08-25T11:32:02.038Z,26.98
2022-08-25T11:35:07.686Z,27.11
2022-08-25T11:38:26.123Z,27.34
2022-08-25T11:41:41.712Z,27.44
2022-08-25T11:44:55.858Z,27.53
2022-08-25T11:48:14.275Z,27.49
2022-08-25T11:51:33.868Z,27.50
2022-08-25T11:54:45.707Z,27.61
2022-08-25T11:57:53.573Z,27.48
2022-08-25T12:00:58.473Z,27.79
2022-08-25T12:04:17.388Z,27.74
2022-08-25T12:07:26.944Z,27.88
2022-08-25T12:10:55.232Z,28.26
2022-08-25T12:14:09.881Z,28.31
2022-08-25T12:17:25.817Z,28.28
2022-08-25T12:21:02.582Z,28.38
2022-08-25T12:24:15.639Z,28.35
2022-08-25T12:27:26.909Z,28.25
2022-08-25T12:30:40.980Z,28.29
2022-08-25T12:33:59.459Z,28.20
2022-08-25T12:37:06.662Z,28.01
2022-08-25T12:40:25.975Z,27.96
2022-08-25T12:43:37.799Z,28.01
2022-08-25T12:46:45.414Z,27.96
2022-08-25T12:49:51.846Z,28.00
2022-08-25T12:52:57.183Z,28.05
2022-08-25T12:56:05.900Z,28.05
2022-08-25T12:59:18.329Z,28.09
2022-08-25T13:02:58.380Z,28.22
2022-08-25T13:06:28.309Z,28.26
2022-08-25T13:10:10.925Z,28.30
2022-08-25T13:13:24.242Z,28.39
2022-08-25T13:16:33.510Z,28.32
2022-08-25T13:19:38.547Z,28.27
2022-08-25T13:22:42.602Z,28.22
2022-08-25T13:25:52.166Z,28.22
2022-08-25T13:28:59.509Z,28.20
2022-08-25T13:32:09.472Z,28.08
2022-08-25T13:35:19.896Z,28.03
2022-08-25T13:38:23.998Z,28.22
2022-08-25T13:41:28.639Z,28.01
2022-08-25T13:44:39.764Z,28.17
2022-08-25T13:47:55.916Z,28.11
2022-08-25T13:51:10.852Z,28.21
2022-08-25T13:54:26.957Z,28.22
2022-08-25T13:57:31.611Z,28.12
2022-08-25T14:00:43.147Z,27.98
2022-08-25T14:03:48.581Z,27.55
2022-08-25T14:07:25.372Z,27.74
2022-08-25T14:10:36.213Z,27.56
2022-08-25T14:13:44.497Z,27.58
2022-08-25T14:16:50.216Z,27.96
2022-08-25T14:19:58.301Z,27.92
2022-08-25T14:23:09.813Z,27.95
2022-08-25T14:26:12.935Z,27.96
2022-08-25T14:29:16.683Z,27.75
2022-08-25T14:32:19.493Z,27.82
2022-08-25T14:35:23.229Z,27.87
2022-08-25T14:38:27.444Z,27.78
2022-08-25T14:41:30.294Z,27.81
2022-08-25T14:44:33.476Z,27.90
2022-08-25T14:47:36.295Z,27.98
2022-08-25T14:50:42.080Z,28.27
2022-08-25T14:53:46.686Z,28.18
2022-08-25T14:56:49.833Z,28.17
2022-08-25T14:59:53.100Z,28.19
2022-08-25T15:02:56.129Z,28.05
2022-08-25T15:05:59.313Z,27.88
2022-08-25T15:09:11.466Z,27.64
2022-08-25T15:12:17.784Z,27.39
2022-08-25T15:15:29.326Z,27.47
2022-08-25T15:18:32.166Z,27.38
2022-08-25T15:21:36.709Z,27.40
2022-08-25T15:24:42.035Z,27.55
2022-08-25T15:27:44.801Z,27.49
2022-08-25T15:30:47.719Z,27.43
2022-08-25T15:33:51.332Z,27.37
2022-08-25T15:36:54.325Z,27.34
2022-08-25T15:39:58.654Z,27.36
2022-08-25T15:43:01.637Z,27.44
2022-08-25T15:46:07.774Z,27.47
2022-08-25T15:49:10.537Z,27.45
2022-08-25T15:52:13.881Z,27.42
2022-08-25T15:55:19.869Z,27.44
2022-08-25T15:58:22.928Z,27.37
2022-08-25T16:01:30.510Z,27.34
2022-08-25T16:04:33.535Z,27.37
2022-08-25T16:07:36.443Z,27.44
2022-08-25T16:10:43.299Z,27.37
2022-08-25T16:13:46.207Z,27.28
2022-08-25T16:16:48.910Z,27.24
2022-08-25T16:19:51.770Z,27.24
2022-08-25T16:22:55.177Z,27.30
2022-08-25T16:26:00.021Z,27.30
2022-08-25T16:29:06.588Z,27.29
2022-08-25T16:32:10.890Z,27.22
2022-08-25T16:35:14.125Z,27.13
2022-08-25T16:38:16.959Z,27.06
2022-08-25T16:41:23.761Z,27.03
2022-08-25T16:44:27.284Z,26.97
2022-08-25T16:47:30.174Z,26.93
2022-08-25T16:50:34.665Z,26.85
2022-08-25T16:53:55.335Z,26.75
2022-08-25T16:56:59.989Z,26.69
2022-08-25T17:00:03.435Z,26.56
2022-08-25T17:03:07.053Z,26.51
2022-08-25T17:06:09.917Z,26.45
2022-08-25T17:09:17.390Z,26.42
2022-08-25T17:12:28.066Z,26.41
2022-08-25T17:15:31.587Z,26.27
2022-08-25T17:18:34.883Z,26.24
2022-08-25T17:21:40.811Z,26.18
2022-08-25T17:24:59.118Z,26.13
2022-08-25T17:28:04.656Z,26.05
2022-08-25T17:31:09.712Z,25.97
2022-08-25T17:34:16.563Z,25.95
2022-08-25T17:37:19.961Z,25.82
2022-08-25T17:40:25.051Z,25.73
2022-08-25T17:43:32.644Z,25.65
2022-08-25T17:46:35.755Z,25.54
2022-08-25T17:49:39.068Z,25.46
2022-08-25T17:52:41.997Z,25.37
2022-08-25T17:55:46.208Z,25.30
2022-08-25T17:58:52.275Z,25.26
2022-08-25T18:01:56.376Z,25.17
2022-08-25T18:04:59.701Z,25.11
2022-08-25T18:08:02.677Z,25.08
2022-08-25T18:11:06.655Z,24.92
2022-08-25T18:14:14.443Z,24.88
2022-08-25T18:17:21.848Z,24.81
2022-08-25T18:20:26.366Z,24.79
2022-08-25T18:23:31.657Z,24.70
2022-08-25T18:26:34.963Z,24.67
2022-08-25T18:29:40.670Z,24.61
2022-08-25T18:32:43.636Z,24.59
2022-08-25T18:35:47.162Z,24.52
2022-08-25T18:39:11.400Z,24.49
2022-08-25T18:42:16.533Z,24.41
2022-08-25T18:45:22.993Z,24.38
2022-08-25T18:48:28.622Z,24.29
2022-08-25T18:51:33.149Z,24.28
2022-08-25T18:54:36.556Z,24.23
2022-08-25T18:57:42.721Z,24.18
2022-08-25T19:00:47.539Z,24.14
2022-08-25T19:03:51.443Z,24.14
2022-08-25T19:06:54.617Z,24.07
2022-08-25T19:09:59.145Z,24.07
2022-08-25T19:13:08.371Z,23.99
2022-08-25T19:16:17.810Z,23.98
2022-08-25T19:19:23.622Z,24.02
2022-08-25T19:22:41.282Z,23.89
2022-08-25T19:25:44.761Z,23.83
2022-08-25T19:28:52.702Z,23.60
2022-08-25T19:31:57.464Z,23.49
2022-08-25T19:35:04.488Z,23.41
2022-08-25T19:38:33.299Z,23.32
2022-08-25T19:41:34.316Z,23.17
2022-08-25T19:44:37.696Z,23.23
2022-08-25T19:47:42.524Z,23.25
2022-08-25T19:50:45.703Z,22.95
2022-08-25T19:53:53.645Z,22.77
2022-08-25T19:56:59.179Z,22.95
2022-08-25T20:00:02.760Z,22.98
2022-08-25T20:03:17.623Z,22.87
2022-08-25T20:06:20.781Z,22.89
2022-08-25T20:09:38.631Z,22.96
2022-08-25T20:12:48.023Z,22.89
2022-08-25T20:15:51.273Z,22.71
2022-08-25T20:19:03.027Z,22.58
2022-08-25T20:22:05.954Z,22.53
2022-08-25T20:25:18.772Z,22.54
2022-08-25T20:28:22.034Z,22.50
2022-08-25T20:31:25.257Z,22.46
2022-08-25T20:34:30.288Z,22.45
2022-08-25T20:37:35.539Z,22.40
2022-08-25T20:40:41.914Z,22.31
2022-08-25T20:43:46.791Z,22.44
2022-08-25T20:46:49.727Z,22.42
2022-08-25T20:49:55.838Z,22.46
2022-08-25T20:52:58.787Z,22.53
2022-08-25T20:56:02.411Z,22.42
2022-08-25T20:59:05.709Z,22.29
2022-08-25T21:02:14.001Z,22.24
2022-08-25T21:05:19.715Z,22.26
2022-08-25T21:08:23.779Z,22.13
2022-08-25T21:11:28.235Z,22.01
2022-08-25T21:14:31.263Z,21.85
2022-08-25T21:17:34.831Z,21.78
2022-08-25T21:20:38.938Z,21.70
2022-08-25T21:23:43.616Z,21.57
2022-08-25T21:26:49.696Z,21.49
2022-08-25T21:29:54.656Z,21.52
2022-08-25T21:32:58.101Z,21.76
2022-08-25T21:36:02.617Z,21.65
2022-08-25T21:39:06.351Z,21.47
2022-08-25T21:45:17.053Z,21.18
2022-08-25T21:48:23.800Z,21.21
2022-08-25T21:51:31.242Z,21.17
2022-08-25T21:54:34.223Z,21.27
2022-08-25T21:57:37.028Z,21.30
2022-08-25T22:00:39.801Z,21.04
2022-08-25T22:03:43.083Z,20.84
2022-08-25T22:06:51.612Z,20.76
2022-08-25T22:09:55.020Z,20.73
2022-08-25T22:12:57.968Z,20.54
2022-08-25T22:16:00.812Z,20.47
2022-08-25T22:19:04.005Z,20.40
2022-08-25T22:22:08.688Z,20.50
2022-08-25T22:25:13.042Z,20.68
2022-08-25T22:28:16.213Z,20.53
2022-08-25T22:31:20.970Z,20.59
2022-08-25T22:34:30.717Z,20.63
2022-08-25T22:37:36.124Z,20.52
2022-08-25T22:40:39.928Z,20.54
2022-08-25T22:43:43.206Z,20.48
2022-08-25T22:46:45.958Z,20.38
2022-08-25T22:49:48.771Z,20.26
2022-08-25T22:52:52.999Z,20.18
2022-08-25T22:55:59.125Z,20.32
2022-08-25T22:59:08.900Z,20.36
2022-08-25T23:02:11.839Z,20.36
2022-08-25T23:05:16.025Z,20.26
2022-08-25T23:08:39.036Z,20.32
2022-08-25T23:11:44.080Z,20.38
2022-08-25T23:14:46.835Z,20.40
2022-08-25T23:17:50.607Z,20.34
2022-08-25T23:21:10.969Z,20.30
2022-08-25T23:24:29.098Z,20.41
2022-08-25T23:27:33.223Z,20.56
2022-08-25T23:30:39.428Z,20.66
2022-08-25T23:33:46.162Z,20.68
2022-08-25T23:36:48.911Z,20.70
2022-08-25T23:39:53.080Z,20.61
2022-08-25T23:42:56.044Z,20.52
2022-08-25T23:45:59.400Z,20.41
2022-08-25T23:49:08.136Z,20.58
2022-08-25T23:52:17.453Z,20.56
2022-08-25T23:55:22.408Z,20.45
2022-08-25T23:58:25.204Z,20.38
